Terminal Aerodrome Forecast
Issued by NWS

Home | Current Version | Previous Version | Text Only | Print | Product List | Glossary On
Versions: 1 2 3 4 5 6 7 8 9 10 11 12 13 14 15 16 17 18 19 20 21 22 23 24 25 26 27 28 29 30 31 32 33 34 35 36 37 38 39 40 41 42 43 44 45 46 47 48 49 50
687
FTUS42 KRAH 030540
TAFRWI
TAF
KRWI 030540Z 0306/0406 20006KT P6SM BKN110
     FM030800 VRB04KT 4SM -SHRA SCT008 BKN015 OVC080
      TEMPO 0309/0311 2SM -SHRA BR BKN007
     FM031500 19008KT P6SM VCSH BKN015
     FM031800 24010KT P6SM BKN035 PROB30 0320/0324 VRB15G30KT 2SM
      -TSRA SCT020 BKN035CB=

USA.gov is the U.S. government's official web portal to all federal, state and local government web resources and services.